Time;durP1;ratioP1;P1;durP2;ratioP2;P2;SDS_P1;SDS_P2;PMS_P1;PMS_P2;Temp;Humidity;BMP_temperature;BMP_pressure;BME280_temperature;BME280_humidity;BME280_pressure;Samples;Min_cycle;Max_cycle;Signal;HPM_P1;HPM_P2
2022/06/22 00:00:23;;;;;;;5.60;3.47;;;15.80;92.20;;;;;;5017666;28;20024;-76
2022/06/22 00:02:52;;;;;;;4.75;3.08;;;15.70;92.50;;;;;;5030917;28;20429;-76
2022/06/22 00:05:27;;;;;;;5.43;3.10;;;15.70;92.70;;;;;;5031309;28;20959;-76
2022/06/22 00:07:57;;;;;;;8.98;3.05;;;15.70;92.90;;;;;;5028139;28;20026;-76
2022/06/22 00:10:34;;;;;;;5.50;3.40;;;15.60;93.20;;;;;;5018939;28;20590;-76
2022/06/22 00:13:01;;;;;;;7.47;3.63;;;15.60;93.70;;;;;;5030912;28;20044;-76
2022/06/22 00:15:41;;;;;;;8.15;3.20;;;15.50;94.10;;;;;;5031898;28;20029;-76
2022/06/22 00:18:40;;;;;;;6.70;3.80;;;15.50;94.40;;;;;;5033440;28;20108;-76
2022/06/22 00:21:27;;;;;;;6.05;3.30;;;15.50;94.80;;;;;;5034095;28;20036;-76
2022/06/22 00:23:57;;;;;;;7.10;3.15;;;15.40;95.30;;;;;;5036997;28;20439;-75
2022/06/22 00:26:23;;;;;;;6.20;3.33;;;15.50;95.50;;;;;;5030674;28;20425;-76
2022/06/22 00:29:37;;;;;;;5.15;3.03;;;15.40;95.80;;;;;;5033938;28;20040;-76
2022/06/22 00:32:25;;;;;;;6.88;3.45;;;15.40;96.10;;;;;;5011672;28;20025;-76
2022/06/22 00:34:51;;;;;;;6.30;3.33;;;15.30;96.50;;;;;;5010099;28;20045;-76
2022/06/22 00:37:31;;;;;;;5.72;3.40;;;15.40;96.80;;;;;;4996317;28;20568;-76
2022/06/22 00:40:07;;;;;;;4.72;3.50;;;15.30;97.20;;;;;;4995267;28;20041;-76
2022/06/22 00:42:47;;;;;;;6.63;3.60;;;15.20;97.60;;;;;;4995157;28;20766;-75
2022/06/22 00:45:34;;;;;;;5.03;3.78;;;15.20;98.10;;;;;;4997391;28;20025;-76
2022/06/22 00:48:01;;;;;;;5.97;3.28;;;15.20;98.00;;;;;;4995740;28;20084;-76
2022/06/22 00:50:52;;;;;;;8.20;3.33;;;15.10;98.10;;;;;;4996257;28;20061;-76
2022/06/22 00:53:32;;;;;;;6.63;3.63;;;15.10;98.40;;;;;;4999544;28;20030;-75
2022/06/22 00:56:07;;;;;;;8.23;3.83;;;15.10;98.50;;;;;;5010362;28;20046;-76
2022/06/22 00:58:59;;;;;;;5.68;3.42;;;15.00;98.90;;;;;;4996094;28;20046;-75
2022/06/22 01:01:46;;;;;;;6.95;4.20;;;15.00;99.30;;;;;;5015359;28;20034;-76
2022/06/22 01:04:49;;;;;;;6.47;3.85;;;15.00;99.60;;;;;;4995499;28;20029;-76
2022/06/22 01:07:18;;;;;;;5.57;3.88;;;15.00;99.80;;;;;;5031491;28;20528;-76
2022/06/22 01:09:46;;;;;;;6.45;4.18;;;15.00;99.90;;;;;;5033320;28;20113;-75
2022/06/22 01:12:29;;;;;;;7.82;4.00;;;15.00;99.90;;;;;;5033278;28;20459;-76
2022/06/22 01:15:02;;;;;;;8.85;4.22;;;15.00;99.90;;;;;;5035800;28;20037;-77
2022/06/22 01:17:38;;;;;;;6.57;4.35;;;15.00;99.90;;;;;;5029012;28;20028;-76
2022/06/22 01:20:22;;;;;;;6.75;3.80;;;14.90;99.90;;;;;;5032667;28;20508;-76
2022/06/22 01:23:19;;;;;;;5.68;4.05;;;14.80;99.90;;;;;;5034774;28;20079;-75
2022/06/22 01:25:52;;;;;;;8.20;4.25;;;14.80;99.90;;;;;;5034176;28;20044;-75
2022/06/22 01:28:19;;;;;;;6.97;4.38;;;14.70;99.90;;;;;;5026117;28;20030;-75
2022/06/22 01:30:49;;;;;;;6.22;4.22;;;14.70;99.90;;;;;;5031542;28;20049;-75
2022/06/22 01:33:25;;;;;;;9.93;4.50;;;14.70;99.90;;;;;;5035167;28;20073;-74
2022/06/22 01:35:58;;;;;;;8.65;4.57;;;14.70;99.90;;;;;;5039377;28;20036;-74
2022/06/22 01:38:29;;;;;;;5.97;4.60;;;14.70;99.90;;;;;;5034974;28;20532;-75
2022/06/22 01:41:17;;;;;;;7.70;4.45;;;14.70;99.90;;;;;;5038228;28;20034;-76
2022/06/22 01:43:54;;;;;;;10.98;4.75;;;14.70;99.90;;;;;;5037712;28;20034;-75
2022/06/22 01:47:02;;;;;;;7.97;4.45;;;14.70;99.90;;;;;;5038749;28;20030;-75
2022/06/22 01:49:57;;;;;;;9.98;4.55;;;14.60;99.90;;;;;;5022875;28;20037;-75
2022/06/22 01:52:51;;;;;;;7.78;4.40;;;14.60;99.90;;;;;;5015334;28;20037;-75
2022/06/22 01:56:04;;;;;;;6.72;4.70;;;14.50;99.90;;;;;;5034984;28;20032;-75
2022/06/22 01:58:38;;;;;;;7.15;5.22;;;14.50;99.90;;;;;;5009527;28;20041;-75
2022/06/22 02:01:13;;;;;;;7.25;4.40;;;14.40;99.90;;;;;;5029572;28;20478;-75
2022/06/22 02:04:04;;;;;;;10.27;5.30;;;14.40;99.90;;;;;;5024678;28;20029;-75
2022/06/22 02:09:31;;;;;;;9.15;4.90;;;14.40;99.90;;;;;;5033268;28;20057;-75
2022/06/22 02:14:44;;;;;;;7.25;5.00;;;14.30;99.90;;;;;;5033333;28;20481;-76
2022/06/22 02:17:14;;;;;;;6.70;4.50;;;14.30;99.90;;;;;;5033397;28;20112;-76
2022/06/22 02:19:41;;;;;;;7.45;4.82;;;14.20;99.90;;;;;;5016829;28;20052;-76
2022/06/22 02:22:11;;;;;;;8.15;4.65;;;14.20;99.90;;;;;;5031207;28;20637;-76
2022/06/22 02:24:45;;;;;;;8.97;5.37;;;14.20;99.90;;;;;;5031723;28;20037;-77
2022/06/22 02:27:18;;;;;;;8.75;4.97;;;14.20;99.90;;;;;;5030137;28;20298;-75
2022/06/22 02:29:44;;;;;;;7.10;4.93;;;14.10;99.90;;;;;;5028873;28;20060;-76
2022/06/22 02:32:25;;;;;;;8.52;5.38;;;14.10;99.90;;;;;;5030816;28;20025;-76
2022/06/22 02:34:53;;;;;;;7.70;4.97;;;14.10;99.90;;;;;;5030876;28;20029;-75
2022/06/22 02:37:21;;;;;;;7.93;4.95;;;14.10;99.90;;;;;;5032039;28;20449;-75
2022/06/22 02:39:54;;;;;;;8.35;5.38;;;14.00;99.90;;;;;;5025385;28;20034;-76
2022/06/22 02:45:10;;;;;;;10.38;5.45;;;13.90;99.90;;;;;;5029062;28;20493;-75
2022/06/22 02:48:12;;;;;;;9.70;5.88;;;13.90;99.90;;;;;;5026799;28;20044;-75
2022/06/22 02:50:59;;;;;;;7.97;5.60;;;14.00;99.90;;;;;;5028509;28;20042;-75
2022/06/22 02:53:38;;;;;;;8.82;6.00;;;13.90;99.90;;;;;;5031673;28;20490;-75
2022/06/22 02:56:07;;;;;;;7.28;4.93;;;13.90;99.90;;;;;;5033069;28;20037;-75
2022/06/22 02:58:36;;;;;;;7.95;5.88;;;13.90;99.90;;;;;;5029914;28;20064;-75
2022/06/22 03:01:23;;;;;;;8.35;5.50;;;13.80;99.90;;;;;;5033760;28;20025;-75
2022/06/22 03:04:04;;;;;;;10.50;6.93;;;13.90;99.90;;;;;;5033628;28;20532;-75
2022/06/22 03:06:34;;;;;;;9.60;5.80;;;13.90;99.90;;;;;;5031627;28;20041;-75
2022/06/22 03:09:03;;;;;;;9.85;5.40;;;13.90;99.90;;;;;;5031729;28;20048;-75
2022/06/22 03:11:31;;;;;;;8.40;5.18;;;13.90;99.90;;;;;;5013841;28;20033;-76
2022/06/22 03:14:36;;;;;;;8.55;5.65;;;13.80;99.90;;;;;;5033014;28;20028;-75
2022/06/22 03:17:09;;;;;;;6.28;5.10;;;13.80;99.90;;;;;;5035036;28;20020;-76
2022/06/22 03:19:38;;;;;;;10.43;5.78;;;13.70;99.90;;;;;;5025440;28;20390;-76
2022/06/22 03:22:04;;;;;;;10.80;5.93;;;13.70;99.90;;;;;;5029473;28;20029;-77
2022/06/22 03:24:39;;;;;;;7.88;6.50;;;13.80;99.90;;;;;;5027684;28;20521;-75
2022/06/22 03:27:20;;;;;;;6.88;5.15;;;13.90;99.90;;;;;;5034695;28;20029;-76
2022/06/22 03:29:52;;;;;;;9.35;5.55;;;13.80;99.90;;;;;;5030459;28;20033;-76
2022/06/22 03:32:39;;;;;;;7.38;5.70;;;13.80;99.90;;;;;;5033340;28;20104;-76
2022/06/22 03:35:13;;;;;;;9.35;5.28;;;13.80;99.90;;;;;;5034576;28;20026;-75
2022/06/22 03:37:59;;;;;;;8.75;5.53;;;13.80;99.90;;;;;;5035158;28;20111;-76
2022/06/22 03:40:48;;;;;;;8.82;5.95;;;13.80;99.90;;;;;;5037413;28;20030;-76
2022/06/22 03:43:19;;;;;;;8.35;5.53;;;13.90;99.90;;;;;;5017293;28;20444;-76
2022/06/22 03:45:50;;;;;;;;;;;13.90;99.90;;;;;;5029190;28;20056;-76
2022/06/22 03:48:36;;;;;;;;;;;14.00;99.90;;;;;;5019612;28;19944;-75
2022/06/22 03:51:11;;;;;;;9.75;5.35;;;13.90;99.90;;;;;;5033067;28;19923;-76
2022/06/22 03:53:44;;;;;;;8.55;5.80;;;13.90;99.90;;;;;;5037691;28;20039;-75
2022/06/22 03:56:14;;;;;;;7.70;6.20;;;13.90;99.90;;;;;;5030859;28;20116;-76
2022/06/22 03:58:42;;;;;;;10.60;6.60;;;13.90;99.90;;;;;;5038296;28;20087;-76
2022/06/22 04:01:10;;;;;;;10.38;6.25;;;14.00;99.90;;;;;;5027455;28;20025;-75
2022/06/22 04:03:36;;;;;;;8.50;6.72;;;14.00;99.90;;;;;;5033833;28;20026;-75
2022/06/22 04:06:03;;;;;;;10.25;7.10;;;14.10;99.90;;;;;;5000788;28;20040;-76
2022/06/22 04:08:40;;;;;;;6.72;5.65;;;14.10;99.90;;;;;;5028099;28;20045;-75
2022/06/22 04:11:25;;;;;;;7.97;6.05;;;14.00;99.90;;;;;;5036935;28;20029;-76
2022/06/22 04:13:57;;;;;;;9.20;5.68;;;14.00;99.90;;;;;;5034523;28;20037;-76
2022/06/22 04:16:32;;;;;;;9.45;6.15;;;14.00;99.90;;;;;;5031898;28;20100;-75
2022/06/22 04:19:03;;;;;;;12.43;6.47;;;14.10;99.90;;;;;;5039514;28;20616;-75
2022/06/22 04:22:16;;;;;;;10.57;6.57;;;14.10;99.90;;;;;;5033926;28;20041;-75
2022/06/22 04:24:54;;;;;;;9.63;6.60;;;14.20;99.90;;;;;;5032426;28;20124;-75
2022/06/22 04:27:43;;;;;;;9.98;6.50;;;14.20;99.90;;;;;;5033899;28;20032;-75
2022/06/22 04:30:32;;;;;;;9.75;6.47;;;14.30;99.90;;;;;;5032220;28;20044;-75
2022/06/22 04:33:15;;;;;;;9.20;5.93;;;14.30;99.90;;;;;;5038246;28;20053;-75
2022/06/22 04:35:55;;;;;;;9.38;5.63;;;14.40;99.90;;;;;;5031648;28;20057;-75
2022/06/22 04:38:39;;;;;;;12.63;5.88;;;14.40;99.90;;;;;;5031455;28;20045;-76
2022/06/22 04:41:24;;;;;;;10.30;6.05;;;14.40;99.90;;;;;;5032327;28;20029;-76
2022/06/22 04:43:51;;;;;;;14.38;5.72;;;14.50;99.90;;;;;;5014613;28;20037;-75
2022/06/22 04:46:30;;;;;;;8.15;5.20;;;14.60;99.90;;;;;;5033456;28;20404;-76
2022/06/22 04:49:03;;;;;;;8.90;5.20;;;14.60;99.90;;;;;;5035739;28;20022;-77
2022/06/22 04:51:33;;;;;;;9.45;5.35;;;14.70;99.90;;;;;;5023172;28;20050;-78
2022/06/22 04:53:58;;;;;;;7.57;4.93;;;14.70;99.90;;;;;;5009310;28;20032;-75
2022/06/22 04:56:31;;;;;;;12.05;5.28;;;14.70;99.90;;;;;;5028867;28;21001;-75
2022/06/22 04:58:59;;;;;;;7.82;4.80;;;14.80;99.90;;;;;;5031404;28;20044;-76
2022/06/22 05:01:28;;;;;;;8.02;5.28;;;14.90;99.90;;;;;;5036698;28;20087;-77
2022/06/22 05:03:57;;;;;;;11.25;5.63;;;14.90;99.90;;;;;;5025889;28;21012;-75
2022/06/22 05:06:32;;;;;;;13.02;5.22;;;15.00;99.90;;;;;;5033073;28;20400;-76
2022/06/22 05:09:03;;;;;;;10.77;4.38;;;15.00;99.90;;;;;;5033878;28;20034;-77
2022/06/22 05:11:48;;;;;;;7.15;4.30;;;15.10;99.90;;;;;;5030489;28;20039;-75
2022/06/22 05:14:28;;;;;;;7.25;4.43;;;15.10;99.90;;;;;;5025733;28;20102;-76
2022/06/22 05:17:03;;;;;;;10.40;4.18;;;15.10;99.90;;;;;;5026048;28;20503;-77
2022/06/22 05:19:57;;;;;;;10.38;4.63;;;15.10;99.90;;;;;;5024306;28;20033;-75
2022/06/22 05:22:23;;;;;;;10.35;4.85;;;15.20;99.90;;;;;;5028121;28;20062;-75
2022/06/22 05:24:56;;;;;;;7.65;4.07;;;15.30;99.90;;;;;;5030936;28;20056;-75
2022/06/22 05:27:27;;;;;;;8.80;3.67;;;15.30;99.90;;;;;;5024555;28;20397;-76
2022/06/22 05:30:01;;;;;;;;;;;15.40;99.90;;;;;;5029111;28;20534;-78
2022/06/22 05:32:35;;;;;;;10.80;4.45;;;15.40;99.90;;;;;;5027388;28;20414;-77
2022/06/22 05:35:07;;;;;;;7.97;4.40;;;15.40;99.90;;;;;;5028625;28;20029;-75
2022/06/22 05:37:37;;;;;;;9.15;4.55;;;15.40;99.90;;;;;;5027582;28;20033;-76
2022/06/22 05:40:03;;;;;;;9.18;3.78;;;15.50;99.90;;;;;;5025934;28;20041;-76
2022/06/22 05:42:31;;;;;;;5.32;3.92;;;15.50;99.90;;;;;;5034838;28;20524;-74
2022/06/22 05:44:58;;;;;;;8.23;4.22;;;15.60;99.90;;;;;;5036195;28;20037;-76
2022/06/22 05:47:28;;;;;;;9.82;4.45;;;15.60;99.90;;;;;;5030291;28;20172;-76
2022/06/22 05:50:17;;;;;;;12.45;4.95;;;15.70;99.90;;;;;;5034755;28;20030;-76
2022/06/22 05:52:47;;;;;;;6.78;4.07;;;15.80;99.90;;;;;;5037290;28;20044;-76
2022/06/22 05:55:28;;;;;;;8.35;4.40;;;15.80;99.90;;;;;;5028705;28;20020;-76
2022/06/22 05:58:18;;;;;;;6.93;4.28;;;15.90;99.90;;;;;;5019342;28;20029;-76
2022/06/22 06:00:47;;;;;;;8.38;4.60;;;16.00;99.90;;;;;;5015700;28;20021;-75
2022/06/22 06:03:19;;;;;;;7.70;4.20;;;16.00;99.90;;;;;;5033166;28;20448;-76
2022/06/22 06:05:49;;;;;;;8.82;4.38;;;16.00;99.90;;;;;;5037318;28;20083;-77
2022/06/22 06:08:18;;;;;;;11.50;4.35;;;16.20;99.90;;;;;;5035186;28;20123;-76
2022/06/22 06:10:44;;;;;;;9.50;4.30;;;16.20;99.90;;;;;;5021507;28;20033;-76
2022/06/22 06:13:16;;;;;;;9.50;3.55;;;16.20;99.90;;;;;;5033279;28;20030;-77
2022/06/22 06:15:45;;;;;;;8.38;4.43;;;16.20;99.90;;;;;;5035975;28;20048;-76
2022/06/22 06:18:19;;;;;;;11.20;4.70;;;16.30;99.90;;;;;;5031598;28;20040;-76
2022/06/22 06:20:55;;;;;;;10.18;3.95;;;16.30;99.90;;;;;;5036603;28;20043;-76
2022/06/22 06:23:25;;;;;;;8.20;3.53;;;16.30;99.90;;;;;;5033710;28;20033;-76
2022/06/22 06:29:04;;;;;;;9.60;4.63;;;16.60;99.90;;;;;;5035737;28;20068;-76
2022/06/22 06:31:53;;;;;;;9.82;3.97;;;16.60;99.90;;;;;;5031815;28;20079;-76
2022/06/22 06:34:25;;;;;;;6.85;3.75;;;16.60;99.90;;;;;;5028962;28;20034;-76
2022/06/22 06:37:32;;;;;;;6.13;3.85;;;16.60;99.90;;;;;;5035392;28;20096;-77
2022/06/22 06:39:58;;;;;;;8.95;4.25;;;16.80;99.90;;;;;;5030711;28;20038;-77
2022/06/22 06:42:35;;;;;;;10.77;3.95;;;16.80;99.90;;;;;;5020546;28;20029;-78
2022/06/22 06:45:02;;;;;;;13.90;4.75;;;16.80;99.90;;;;;;5031306;28;20500;-77
2022/06/22 06:47:36;;;;;;;5.68;4.28;;;16.80;99.90;;;;;;5019591;28;20037;-76
2022/06/22 06:50:08;;;;;;;12.65;4.72;;;16.90;99.90;;;;;;5035778;28;20025;-76
2022/06/22 06:53:04;;;;;;;11.65;4.47;;;17.10;99.90;;;;;;5028422;28;20501;-77
2022/06/22 06:55:50;;;;;;;10.57;3.72;;;17.10;99.90;;;;;;5010425;28;20103;-75
2022/06/22 06:58:32;;;;;;;7.13;3.60;;;17.20;99.90;;;;;;5022447;28;20112;-74
2022/06/22 07:00:58;;;;;;;7.97;4.25;;;17.20;99.90;;;;;;5023646;28;20027;-74
2022/06/22 07:03:34;;;;;;;9.57;5.18;;;17.20;99.90;;;;;;5030641;28;20028;-75
2022/06/22 07:06:02;;;;;;;8.73;4.30;;;17.30;99.90;;;;;;5032544;28;20531;-78
2022/06/22 07:08:46;;;;;;;10.20;4.28;;;17.30;99.90;;;;;;5005203;28;20029;-76
2022/06/22 07:11:35;;;;;;;7.60;4.20;;;17.30;99.90;;;;;;5035684;28;20029;-76
2022/06/22 07:14:25;;;;;;;7.35;3.92;;;17.30;99.90;;;;;;5034338;28;20029;-75
2022/06/22 07:16:54;;;;;;;8.82;4.60;;;17.30;99.90;;;;;;5017059;28;20029;-75
2022/06/22 07:19:21;;;;;;;9.98;5.07;;;17.30;99.90;;;;;;5035662;28;20036;-75
2022/06/22 07:21:50;;;;;;;8.23;4.40;;;17.30;99.90;;;;;;5034181;28;20036;-75
2022/06/22 07:24:19;;;;;;;6.40;4.18;;;17.30;99.90;;;;;;5033449;28;20028;-76
2022/06/22 07:27:08;;;;;;;10.50;4.07;;;17.40;99.90;;;;;;5033585;28;20037;-76
2022/06/22 07:29:52;;;;;;;8.63;4.43;;;17.50;99.90;;;;;;5037312;28;20029;-75
2022/06/22 07:32:39;;;;;;;11.73;4.80;;;17.50;99.90;;;;;;5017342;28;20021;-76
2022/06/22 07:35:20;;;;;;;7.50;4.65;;;17.60;99.90;;;;;;5035841;28;20040;-76
2022/06/22 07:37:56;;;;;;;9.45;4.80;;;17.60;99.90;;;;;;5014035;28;20458;-76
2022/06/22 07:40:25;;;;;;;9.68;4.68;;;17.60;99.90;;;;;;5038354;28;20029;-76
2022/06/22 07:42:52;;;;;;;8.48;3.80;;;17.60;99.90;;;;;;5034173;28;20037;-76
2022/06/22 07:45:21;;;;;;;9.13;4.60;;;17.60;99.90;;;;;;5041039;28;20087;-76
2022/06/22 07:47:59;;;;;;;12.00;6.13;;;17.70;99.90;;;;;;5021339;28;20506;-76
2022/06/22 07:50:30;;;;;;;8.05;4.57;;;17.30;99.90;;;;;;5039537;28;20041;-76
2022/06/22 07:53:21;;;;;;;10.97;4.13;;;17.40;99.90;;;;;;5022010;28;20120;-77
2022/06/22 07:56:06;;;;;;;6.72;3.67;;;17.60;99.90;;;;;;5041851;28;20255;-77
2022/06/22 07:58:48;;;;;;;9.13;4.28;;;17.70;99.90;;;;;;5039505;28;20097;-76
2022/06/22 08:01:19;;;;;;;8.85;4.60;;;17.90;99.90;;;;;;5019538;28;20025;-77
2022/06/22 08:04:03;;;;;;;9.93;4.35;;;18.00;99.90;;;;;;5038609;28;20111;-75
2022/06/22 08:06:39;;;;;;;8.23;4.30;;;18.00;99.90;;;;;;5036101;28;20120;-77
2022/06/22 08:09:17;;;;;;;7.68;4.75;;;18.10;99.90;;;;;;5040575;28;20416;-77
2022/06/22 08:12:01;;;;;;;11.30;5.00;;;18.20;99.90;;;;;;5038076;28;20021;-75
2022/06/22 08:14:45;;;;;;;11.75;4.55;;;18.30;99.90;;;;;;5038658;28;20056;-76
2022/06/22 08:17:20;;;;;;;9.48;4.10;;;18.40;99.90;;;;;;5038841;28;20124;-77
2022/06/22 08:19:48;;;;;;;10.25;4.20;;;18.40;99.90;;;;;;5018347;28;20033;-77
2022/06/22 08:22:14;;;;;;;10.93;4.88;;;18.40;99.90;;;;;;5033500;28;20410;-77
2022/06/22 08:24:45;;;;;;;10.50;4.75;;;18.40;99.90;;;;;;5036131;28;20089;-78
2022/06/22 08:27:17;;;;;;;12.80;4.55;;;18.60;99.90;;;;;;5039891;28;20488;-76
2022/06/22 08:29:43;;;;;;;;;;;18.50;99.90;;;;;;5022592;28;20151;-76
2022/06/22 08:32:15;;;;;;;12.60;5.43;;;18.50;99.90;;;;;;5023799;28;19909;-77
2022/06/22 08:34:45;;;;;;;5.78;3.97;;;18.60;99.90;;;;;;5036971;28;20052;-76
2022/06/22 08:37:30;;;;;;;5.30;3.53;;;18.60;99.90;;;;;;5040155;28;20500;-76
2022/06/22 08:40:13;;;;;;;6.18;3.92;;;18.70;99.90;;;;;;5020611;28;20143;-76
2022/06/22 08:42:57;;;;;;;10.40;4.18;;;18.80;99.90;;;;;;5032963;28;20087;-76
2022/06/22 08:45:38;;;;;;;9.18;4.53;;;18.90;99.90;;;;;;5022670;28;20025;-75
2022/06/22 08:48:16;;;;;;;6.57;4.22;;;19.00;99.90;;;;;;5038636;28;20029;-75
2022/06/22 08:51:09;;;;;;;10.38;4.68;;;19.00;99.90;;;;;;5037312;28;20471;-76
2022/06/22 08:54:03;;;;;;;11.43;4.63;;;19.00;99.90;;;;;;5039830;28;20207;-80
2022/06/22 08:56:58;;;;;;;11.43;4.53;;;19.10;99.90;;;;;;5034062;28;20043;-77
2022/06/22 08:59:42;;;;;;;7.50;4.30;;;19.20;99.90;;;;;;5020926;28;20032;-77
2022/06/22 09:03:00;;;;;;;8.25;3.88;;;19.30;99.90;;;;;;5036706;28;20040;-77
2022/06/22 09:05:37;;;;;;;7.95;4.22;;;19.20;99.90;;;;;;4986824;28;20045;-77
2022/06/22 09:08:36;;;;;;;7.82;4.25;;;19.20;99.90;;;;;;5041299;28;20507;-76
2022/06/22 09:11:20;;;;;;;9.40;3.72;;;19.40;99.90;;;;;;5055081;28;20692;-78
2022/06/22 09:13:53;;;;;;;10.27;3.65;;;19.60;99.60;;;;;;5053816;28;20044;-76
2022/06/22 09:16:50;;;;;;;8.63;4.40;;;19.70;99.30;;;;;;5053616;28;20025;-79
2022/06/22 09:19:42;;;;;;;6.38;4.10;;;19.90;98.60;;;;;;5053483;28;20017;-76
2022/06/22 09:22:35;;;;;;;6.53;3.70;;;19.90;98.30;;;;;;5037868;28;20044;-76
2022/06/22 09:25:20;;;;;;;8.90;4.32;;;20.00;98.00;;;;;;5040363;28;20061;-77
2022/06/22 09:28:00;;;;;;;8.93;3.80;;;19.90;97.70;;;;;;5034156;28;20033;-77
2022/06/22 09:30:47;;;;;;;8.98;4.10;;;20.20;97.70;;;;;;5039160;28;20112;-77
2022/06/22 09:33:22;;;;;;;7.53;4.22;;;20.40;97.50;;;;;;5034823;28;20083;-78
2022/06/22 09:36:08;;;;;;;7.72;3.97;;;20.50;97.40;;;;;;5020527;28;20025;-77
2022/06/22 09:39:12;;;;;;;8.43;4.05;;;20.50;96.40;;;;;;5036094;28;20033;-77
2022/06/22 09:41:47;;;;;;;7.80;3.90;;;20.50;96.70;;;;;;5015360;28;20038;-77
2022/06/22 09:44:46;;;;;;;6.30;3.72;;;20.40;96.80;;;;;;5020559;28;20047;-77
2022/06/22 09:47:42;;;;;;;6.93;4.20;;;20.20;96.70;;;;;;5037781;28;20327;-78
2022/06/22 09:50:26;;;;;;;7.53;4.28;;;20.20;95.60;;;;;;5036891;28;20031;-78
2022/06/22 09:53:00;;;;;;;8.02;4.20;;;20.00;95.70;;;;;;5020751;28;20115;-77
2022/06/22 09:56:27;;;;;;;9.35;4.57;;;20.20;96.50;;;;;;5036600;28;20025;-76
2022/06/22 09:59:07;;;;;;;8.30;4.30;;;20.40;96.60;;;;;;5035170;28;20049;-76
2022/06/22 10:01:39;;;;;;;5.72;3.47;;;20.60;96.20;;;;;;5019968;28;20029;-76
2022/06/22 10:04:08;;;;;;;8.45;4.28;;;20.50;95.80;;;;;;5035226;28;20091;-76
2022/06/22 10:06:58;;;;;;;8.40;3.97;;;20.50;95.60;;;;;;5015098;28;20040;-77
2022/06/22 10:09:52;;;;;;;4.80;2.97;;;20.30;95.60;;;;;;5036162;28;20520;-76
2022/06/22 10:12:57;;;;;;;4.53;3.67;;;20.30;95.70;;;;;;5036563;28;20030;-78
2022/06/22 10:15:45;;;;;;;7.82;3.47;;;20.30;95.40;;;;;;5037514;28;20390;-75
2022/06/22 10:18:47;;;;;;;8.18;4.03;;;20.30;95.30;;;;;;5020784;28;20032;-76
2022/06/22 10:21:38;;;;;;;;;;;20.60;95.20;;;;;;4996226;28;20023;-78
2022/06/22 10:24:16;;;;;;;7.32;3.60;;;20.70;94.30;;;;;;5032073;28;19932;-77
2022/06/22 10:27:15;;;;;;;10.73;3.75;;;20.70;94.40;;;;;;5032287;28;20037;-76
2022/06/22 10:29:47;;;;;;;6.20;3.38;;;20.80;94.70;;;;;;5034850;28;20401;-77
2022/06/22 10:32:30;;;;;;;7.15;3.97;;;20.90;94.80;;;;;;5032355;28;20026;-76
2022/06/22 10:34:59;;;;;;;5.22;3.47;;;21.00;93.30;;;;;;5030429;28;20030;-76
2022/06/22 10:37:40;;;;;;;4.57;3.33;;;21.00;93.80;;;;;;5031434;28;20100;-76
2022/06/22 10:46:21;;;;;;;5.45;3.42;;;21.20;92.40;;;;;;5040617;28;20013;-75
2022/06/22 10:48:57;;;;;;;6.55;3.40;;;21.20;92.50;;;;;;5035041;28;20025;-76
2022/06/22 10:51:54;;;;;;;6.35;2.95;;;21.30;92.80;;;;;;5036916;28;20029;-76
2022/06/22 10:54:49;;;;;;;5.78;3.22;;;21.20;92.80;;;;;;5040572;28;20025;-77
2022/06/22 10:57:36;;;;;;;8.65;4.60;;;21.20;92.90;;;;;;5037101;28;20033;-76
2022/06/22 11:00:07;;;;;;;7.03;3.38;;;21.20;92.50;;;;;;5035541;28;20030;-78
2022/06/22 11:02:42;;;;;;;6.65;3.28;;;21.20;92.50;;;;;;5033759;28;20033;-75
2022/06/22 11:05:48;;;;;;;5.47;3.20;;;21.30;92.50;;;;;;5035642;28;20033;-79
2022/06/22 11:08:35;;;;;;;4.43;2.60;;;21.40;91.00;;;;;;5032171;28;20025;-76
2022/06/22 11:11:29;;;;;;;4.68;2.08;;;21.40;89.70;;;;;;5032848;28;20074;-76
2022/06/22 11:14:13;;;;;;;5.35;3.13;;;21.60;89.70;;;;;;5035131;28;20111;-77
2022/06/22 11:16:58;;;;;;;5.40;2.45;;;21.80;86.50;;;;;;5033467;28;20040;-76
2022/06/22 11:20:13;;;;;;;5.15;2.55;;;22.10;86.20;;;;;;5036292;28;20025;-80
2022/06/22 11:22:46;;;;;;;5.38;2.50;;;22.90;86.50;;;;;;5020518;28;20037;-76
2022/06/22 11:25:17;;;;;;;5.85;2.67;;;24.70;85.60;;;;;;5000796;28;20033;-78
2022/06/22 11:31:14;;;;;;;6.90;3.15;;;28.90;69.70;;;;;;5019391;28;20025;-74
2022/06/22 11:34:13;;;;;;;6.28;2.28;;;30.90;61.20;;;;;;5001916;28;20751;-77
2022/06/22 11:36:54;;;;;;;8.48;3.78;;;32.40;56.20;;;;;;4959580;28;20069;-76
2022/06/22 11:39:56;;;;;;;5.10;2.65;;;33.10;51.10;;;;;;5019325;28;20640;-76
2022/06/22 11:42:57;;;;;;;3.72;2.03;;;34.80;49.90;;;;;;5007480;28;20083;-79
2022/06/22 11:45:51;;;;;;;4.50;2.00;;;36.60;46.80;;;;;;4976277;28;20084;-77
2022/06/22 11:48:24;;;;;;;4.10;1.95;;;37.70;44.10;;;;;;5002135;28;20410;-77
2022/06/22 11:51:22;;;;;;;3.55;2.08;;;38.40;42.60;;;;;;5018755;28;20328;-78
2022/06/22 11:54:06;;;;;;;2.53;2.03;;;38.80;42.40;;;;;;5026721;28;20060;-78
2022/06/22 11:56:56;;;;;;;29.67;26.48;;;38.80;42.40;;;;;;5042909;28;20025;-77
2022/06/22 11:59:41;;;;;;;6.72;5.40;;;38.70;40.70;;;;;;5020568;28;20086;-79
2022/06/22 12:02:37;;;;;;;4.95;3.55;;;37.40;37.60;;;;;;5040634;28;20025;-77
2022/06/22 12:05:28;;;;;;;3.33;1.90;;;37.10;41.20;;;;;;5039272;28;20023;-77
2022/06/22 12:08:16;;;;;;;2.63;1.75;;;37.10;38.80;;;;;;5035473;28;20060;-78
2022/06/22 12:11:04;;;;;;;3.30;1.85;;;36.30;42.10;;;;;;5028511;28;20030;-77
2022/06/22 12:17:10;;;;;;;4.45;1.70;;;35.50;38.30;;;;;;5024213;28;20408;-78
2022/06/22 12:19:41;;;;;;;2.45;1.70;;;35.80;40.00;;;;;;5015785;28;20033;-78
2022/06/22 12:22:30;;;;;;;2.88;1.75;;;35.70;41.70;;;;;;5002407;28;20030;-78
2022/06/22 12:25:17;;;;;;;4.23;1.57;;;35.70;42.10;;;;;;5009043;28;20572;-77
2022/06/22 12:27:58;;;;;;;4.07;1.83;;;35.80;41.70;;;;;;5018867;28;20284;-77
2022/06/22 12:30:33;;;;;;;4.90;1.90;;;35.30;39.90;;;;;;5012585;28;20041;-77
2022/06/22 12:33:18;;;;;;;3.45;2.00;;;35.70;37.30;;;;;;5019734;28;20516;-76
2022/06/22 12:36:19;;;;;;;4.03;2.00;;;35.50;37.70;;;;;;5018576;28;20030;-76
2022/06/22 12:38:51;;;;;;;4.43;2.05;;;36.40;38.70;;;;;;5006678;28;20128;-76
2022/06/22 12:41:27;;;;;;;4.40;1.77;;;36.90;37.90;;;;;;5019655;28;20104;-76
2022/06/22 12:44:25;;;;;;;2.55;1.80;;;37.00;39.10;;;;;;5022186;28;20033;-76
2022/06/22 12:47:03;;;;;;;5.65;2.03;;;37.10;38.10;;;;;;5019681;28;20405;-76
2022/06/22 12:49:48;;;;;;;3.75;1.75;;;37.10;38.10;;;;;;5013287;28;20058;-76
2022/06/22 12:52:18;;;;;;;2.60;2.00;;;36.90;39.60;;;;;;5020711;28;20026;-75
2022/06/22 12:54:48;;;;;;;2.85;1.83;;;36.80;40.00;;;;;;5021982;28;20370;-79
2022/06/22 12:57:25;;;;;;;4.05;2.00;;;37.00;40.00;;;;;;5023159;28;20529;-76
2022/06/22 13:00:01;;;;;;;4.05;2.17;;;37.30;40.10;;;;;;5022369;28;20089;-76
2022/06/22 13:02:30;;;;;;;6.90;2.42;;;37.60;38.70;;;;;;5019513;28;20029;-77
2022/06/22 13:05:19;;;;;;;3.90;1.83;;;37.60;37.90;;;;;;5018610;28;20454;-78
2022/06/22 13:07:49;;;;;;;4.22;1.63;;;37.70;39.40;;;;;;5021746;28;20505;-76
2022/06/22 13:10:16;;;;;;;;;;;37.90;38.70;;;;;;5023679;28;20087;-76
2022/06/22 13:13:00;;;;;;;3.88;1.77;;;38.30;38.40;;;;;;5017179;28;20178;-79
2022/06/22 13:15:33;;;;;;;3.78;1.67;;;38.50;38.60;;;;;;5013117;28;20037;-79
2022/06/22 13:18:14;;;;;;;2.55;1.60;;;39.30;36.90;;;;;;5017875;28;20022;-76
2022/06/22 13:20:54;;;;;;;4.80;1.90;;;39.40;36.80;;;;;;5022113;28;20033;-76
2022/06/22 13:23:56;;;;;;;3.97;1.65;;;39.50;36.00;;;;;;5017371;28;20033;-75
2022/06/22 13:26:32;;;;;;;3.30;1.63;;;39.80;36.30;;;;;;5017076;28;20024;-74
2022/06/22 13:29:07;;;;;;;4.32;1.63;;;40.20;36.80;;;;;;5018937;28;20036;-73
2022/06/22 13:31:37;;;;;;;2.90;1.67;;;41.00;35.00;;;;;;5016107;28;20148;-74
2022/06/22 13:34:14;;;;;;;5.22;1.75;;;41.20;35.10;;;;;;5020269;28;20037;-76
2022/06/22 13:37:06;;;;;;;2.65;1.60;;;41.30;35.10;;;;;;5020711;28;20382;-76
2022/06/22 13:39:59;;;;;;;3.13;1.58;;;41.50;34.10;;;;;;5020753;28;20049;-75
2022/06/22 13:42:59;;;;;;;2.80;1.60;;;41.60;34.10;;;;;;5021944;28;20472;-76
2022/06/22 13:45:35;;;;;;;4.82;2.08;;;41.40;34.40;;;;;;5017081;28;20022;-77
2022/06/22 13:48:28;;;;;;;2.60;1.67;;;41.60;34.10;;;;;;5016983;28;20026;-76
2022/06/22 13:51:14;;;;;;;7.55;1.88;;;42.10;33.40;;;;;;5017190;28;20029;-76
2022/06/22 13:54:03;;;;;;;3.45;1.90;;;41.50;34.00;;;;;;5019293;28;20017;-76
2022/06/22 13:56:39;;;;;;;3.03;2.30;;;41.60;34.70;;;;;;5019255;28;20398;-77
2022/06/22 13:59:44;;;;;;;8.05;5.38;;;41.80;34.20;;;;;;5019557;28;20025;-77
2022/06/22 14:02:15;;;;;;;6.93;5.85;;;41.90;35.20;;;;;;5016840;28;20033;-75
2022/06/22 14:04:48;;;;;;;4.03;2.38;;;41.80;34.90;;;;;;5016550;28;20026;-75
2022/06/22 14:07:25;;;;;;;4.90;2.80;;;42.10;33.90;;;;;;5018341;28;20033;-75
2022/06/22 14:10:22;;;;;;;19.05;17.67;;;41.60;32.30;;;;;;5017196;28;20065;-75
2022/06/22 14:12:53;;;;;;;3.95;3.58;;;41.80;34.00;;;;;;4952758;28;20030;-75
2022/06/22 14:15:43;;;;;;;3.75;2.15;;;42.20;33.80;;;;;;5014741;28;20394;-75